Time;durP1;ratioP1;P1;durP2;ratioP2;P2;SDS_P1;SDS_P2;PMS_P1;PMS_P2;Temp;Humidity;BMP_temperature;BMP_pressure;BME280_temperature;BME280_humidity;BME280_pressure;Samples;Min_cycle;Max_cycle;Signal;HPM_P1;HPM_P2
2021/01/12 00:00:31;;;;;;;15.07;10.40;;;;;;;-0.77;85.58;98375.66;5113889;28;20217;-66
2021/01/12 00:03:00;;;;;;;15.13;10.17;;;;;;;-0.75;85.75;98368.72;5113905;28;20214;-65
2021/01/12 00:05:26;;;;;;;14.90;10.47;;;;;;;-0.74;85.13;98362.66;5113866;28;20211;-65
2021/01/12 00:07:53;;;;;;;14.20;9.67;;;;;;;-0.74;85.50;98354.88;5113473;28;20221;-65
2021/01/12 00:10:20;;;;;;;15.90;10.13;;;;;;;-0.67;85.75;98351.25;5112780;28;20682;-65
2021/01/12 00:12:48;;;;;;;18.50;10.77;;;;;;;-0.62;85.47;98362.38;5113795;28;20624;-65
2021/01/12 00:15:14;;;;;;;14.80;10.00;;;;;;;-0.58;84.55;98348.44;5113405;28;20220;-65
2021/01/12 00:17:40;;;;;;;14.63;10.23;;;;;;;-0.55;83.71;98348.38;5113747;28;20212;-65
2021/01/12 00:20:08;;;;;;;15.63;10.67;;;;;;;-0.56;84.13;98333.69;5113625;28;20226;-65
2021/01/12 00:22:35;;;;;;;15.67;10.93;;;;;;;-0.53;84.53;98333.63;5112424;28;20210;-66
2021/01/12 00:25:01;;;;;;;16.33;10.77;;;;;;;-0.51;84.37;98334.47;5113025;28;20210;-66
2021/01/12 00:27:27;;;;;;;17.17;11.13;;;;;;;-0.48;83.59;98334.38;5114062;28;20683;-66
2021/01/12 00:29:54;;;;;;;15.50;10.50;;;;;;;-0.44;83.19;98326.47;5113608;28;20208;-65
2021/01/12 00:32:22;;;;;;;15.47;11.23;;;;;;;-0.45;83.29;98316.16;5113209;28;20209;-66
2021/01/12 00:34:48;;;;;;;15.63;10.87;;;;;;;-0.46;82.67;98299.72;5113485;28;20643;-66
2021/01/12 00:37:16;;;;;;;16.67;11.53;;;;;;;-0.46;82.13;98293.66;5113470;28;20259;-68
2021/01/12 00:39:42;;;;;;;19.43;12.37;;;;;;;-0.60;82.99;98296.59;5113413;28;20233;-67
2021/01/12 00:42:08;;;;;;;16.77;10.53;;;;;;;-0.55;83.78;98301.66;5113450;28;20303;-67
2021/01/12 00:44:34;;;;;;;18.77;11.90;;;;;;;-0.48;82.76;98290.25;5113222;28;20213;-67
2021/01/12 00:47:02;;;;;;;18.63;11.77;;;;;;;-0.48;82.79;98295.44;5113075;28;20244;-67
2021/01/12 00:49:28;;;;;;;18.20;11.93;;;;;;;-0.42;82.53;98280.59;5111487;28;20216;-67
2021/01/12 00:51:54;;;;;;;19.77;12.60;;;;;;;-0.42;82.67;98284.91;5113396;28;20244;-67
2021/01/12 00:54:22;;;;;;;16.77;10.93;;;;;;;-0.39;82.95;98274.47;5113050;28;20217;-66
2021/01/12 00:56:49;;;;;;;16.73;11.47;;;;;;;-0.32;82.75;98283.81;5113020;28;20254;-67
2021/01/12 00:59:15;;;;;;;17.73;11.77;;;;;;;-0.29;82.39;98286.31;5113347;28;20679;-67
2021/01/12 01:01:43;;;;;;;14.23;10.37;;;;;;;-0.28;82.15;98284.53;5113408;28;20206;-67
2021/01/12 01:04:12;;;;;;;18.67;12.33;;;;;;;-0.25;81.74;98280.19;5113561;28;20254;-67
2021/01/12 01:06:38;;;;;;;16.10;10.73;;;;;;;-0.22;82.11;98283.53;5113268;28;20572;-67
2021/01/12 01:09:05;;;;;;;18.20;11.83;;;;;;;-0.17;82.23;98280.81;5113194;28;20251;-67
2021/01/12 01:11:31;;;;;;;18.10;12.03;;;;;;;-0.18;81.81;98282.59;5113322;28;20266;-67
2021/01/12 01:13:57;;;;;;;19.10;11.97;;;;;;;-0.13;82.12;98274.69;5113075;28;20262;-67
2021/01/12 01:16:30;;;;;;;16.00;10.90;;;;;;;-0.20;82.15;98280.91;5111488;28;20244;-67
2021/01/12 01:18:56;;;;;;;16.33;10.73;;;;;;;-0.19;82.69;98280.84;5113143;28;20241;-67
2021/01/12 01:21:23;;;;;;;15.83;10.63;;;;;;;-0.12;82.80;98285.03;5113519;28;20607;-67
2021/01/12 01:23:48;;;;;;;16.80;10.87;;;;;;;-0.13;81.12;98273.78;5116736;28;20711;-64
2021/01/12 01:26:16;;;;;;;15.83;10.00;;;;;;;-0.18;81.54;98271.34;5117016;28;20296;-63
2021/01/12 01:28:42;;;;;;;17.23;11.37;;;;;;;-0.11;82.32;98277.19;5116842;28;20234;-66
2021/01/12 01:31:08;;;;;;;16.50;10.73;;;;;;;-0.10;82.26;98278.88;5116760;28;20216;-66
2021/01/12 01:33:34;;;;;;;14.97;10.23;;;;;;;-0.15;81.60;98290.28;5116740;28;20645;-65
2021/01/12 01:36:00;;;;;;;16.80;11.20;;;;;;;-0.06;82.13;98280.53;5116774;28;20206;-64
2021/01/12 01:38:26;;;;;;;18.23;11.17;;;;;;;-0.05;81.76;98279.63;5116697;28;20264;-65
2021/01/12 01:40:57;;;;;;;15.00;10.73;;;;;;;-0.02;81.54;98282.16;5115071;28;20338;-64
2021/01/12 01:43:23;;;;;;;17.53;11.23;;;;;;;0.00;81.50;98282.97;5116535;28;20682;-63
2021/01/12 01:45:50;;;;;;;19.53;12.13;;;;;;;-0.13;81.88;98273.78;5116728;28;20258;-66
2021/01/12 01:48:16;;;;;;;17.60;10.80;;;;;;;-0.30;82.24;98284.63;5117081;28;20694;-71
2021/01/12 01:50:43;;;;;;;17.10;10.60;;;;;;;-0.28;82.50;98277.63;5117609;28;20552;-65
2021/01/12 01:53:10;;;;;;;17.00;10.93;;;;;;;-0.22;82.20;98279.19;5116649;28;20262;-64
2021/01/12 01:55:38;;;;;;;16.00;10.23;;;;;;;-0.18;82.66;98266.13;5116224;28;20220;-66
2021/01/12 01:58:05;;;;;;;15.13;10.43;;;;;;;-0.28;82.11;98253.38;5116256;28;20231;-65
2021/01/12 02:00:32;;;;;;;15.53;10.27;;;;;;;-0.26;83.01;98257.69;5116304;28;20206;-67
2021/01/12 02:03:07;;;;;;;16.73;10.50;;;;;;;-0.16;83.25;98234.88;5116333;28;20224;-64
2021/01/12 02:05:36;;;;;;;14.43;9.40;;;;;;;-0.08;83.00;98240.75;5116283;28;20220;-67
2021/01/12 02:08:06;;;;;;;16.30;10.37;;;;;;;0.06;82.27;98228.25;5114524;28;20214;-68
2021/01/12 02:10:39;;;;;;;14.67;9.67;;;;;;;0.10;81.26;98218.63;5116125;28;20213;-67
2021/01/12 02:13:09;;;;;;;13.60;9.20;;;;;;;0.17;81.51;98217.56;5115808;28;20744;-67
2021/01/12 02:15:35;;;;;;;15.90;9.70;;;;;;;0.17;80.71;98214.97;5115809;28;20216;-67
2021/01/12 02:18:02;;;;;;;14.40;9.07;;;;;;;0.22;80.39;98210.50;5115850;28;20306;-67
2021/01/12 02:20:28;;;;;;;13.73;8.77;;;;;;;0.25;80.14;98206.06;5115816;28;20210;-67
2021/01/12 02:23:06;;;;;;;15.30;9.70;;;;;;;0.24;81.14;98201.78;5115925;28;20220;-67
2021/01/12 02:25:35;;;;;;;12.87;9.37;;;;;;;0.24;81.23;98198.31;5115819;28;20217;-68
2021/01/12 02:28:06;;;;;;;13.27;9.10;;;;;;;0.29;81.32;98189.50;5115456;28;20706;-68
2021/01/12 02:30:32;;;;;;;14.60;8.70;;;;;;;0.27;80.96;98183.50;5115519;28;20216;-68
2021/01/12 02:32:58;;;;;;;13.53;9.43;;;;;;;0.25;81.29;98179.25;5113442;28;20259;-67
2021/01/12 02:35:27;;;;;;;14.83;9.17;;;;;;;0.24;81.45;98167.13;5115336;28;20210;-67
2021/01/12 02:37:55;;;;;;;13.17;8.90;;;;;;;0.28;81.72;98167.03;5115578;28;20697;-67
2021/01/12 02:40:21;;;;;;;13.43;8.33;;;;;;;0.35;81.27;98172.88;5114995;28;20244;-67
2021/01/12 02:42:47;;;;;;;12.37;8.27;;;;;;;0.35;80.79;98178.06;5115395;28;20217;-68
2021/01/12 02:45:15;;;;;;;11.43;8.17;;;;;;;0.33;80.78;98165.13;5115249;28;20263;-67
2021/01/12 02:47:41;;;;;;;12.67;8.57;;;;;;;0.37;81.58;98169.34;5114990;28;20696;-67
2021/01/12 02:50:11;;;;;;;10.73;7.63;;;;;;;0.41;81.24;98157.97;5115018;28;20220;-67
2021/01/12 02:52:38;;;;;;;11.93;8.03;;;;;;;0.40;82.01;98151.06;5115268;28;20287;-67
2021/01/12 02:55:04;;;;;;;11.47;8.33;;;;;;;0.36;81.95;98143.38;5115010;28;20262;-66
2021/01/12 02:57:30;;;;;;;14.13;7.80;;;;;;;0.20;81.97;98142.97;5115271;28;20217;-66
2021/01/12 02:59:57;;;;;;;11.87;7.67;;;;;;;0.31;82.34;98135.72;5113378;28;20245;-67
2021/01/12 03:02:23;;;;;;;11.60;8.03;;;;;;;0.39;82.11;98133.75;5115145;28;20232;-69
2021/01/12 03:04:49;;;;;;;11.80;6.83;;;;;;;0.35;82.45;98126.09;5115093;28;20221;-68
2021/01/12 03:07:15;;;;;;;11.87;7.67;;;;;;;0.35;82.20;98124.34;5114759;28;20583;-69
2021/01/12 03:09:41;;;;;;;11.70;7.63;;;;;;;0.39;82.25;98119.91;5115031;28;20263;-68
2021/01/12 03:12:08;;;;;;;10.40;7.17;;;;;;;0.32;82.75;98116.63;5114721;28;20227;-65
2021/01/12 03:14:35;;;;;;;11.53;7.53;;;;;;;0.34;83.15;98114.84;5114902;28;20214;-71
2021/01/12 03:17:02;;;;;;;10.60;7.10;;;;;;;0.32;83.40;98111.44;5114626;28;20259;-67
2021/01/12 03:19:28;;;;;;;9.33;6.30;;;;;;;0.48;83.25;98102.28;5114588;28;20238;-68
2021/01/12 03:21:53;;;;;;;9.33;6.43;;;;;;;0.55;82.66;98093.41;5114921;28;20254;-68
2021/01/12 03:24:19;;;;;;;10.33;7.10;;;;;;;0.63;82.23;98094.00;5113806;28;20212;-68
2021/01/12 03:26:45;;;;;;;8.27;6.10;;;;;;;0.65;82.63;98081.84;5114050;28;20209;-66
2021/01/12 03:29:11;;;;;;;8.30;6.13;;;;;;;0.62;82.66;98084.50;5114485;28;20210;-67
2021/01/12 03:31:37;;;;;;;9.27;6.40;;;;;;;0.72;82.34;98080.75;5114559;28;20628;-67
2021/01/12 03:34:04;;;;;;;10.57;6.83;;;;;;;0.73;82.21;98072.03;5114539;28;20224;-66
2021/01/12 03:36:30;;;;;;;8.20;6.20;;;;;;;0.70;82.86;98066.94;5114183;28;20267;-67
2021/01/12 03:38:56;;;;;;;8.70;6.50;;;;;;;0.72;82.66;98067.75;5114333;28;20273;-67
2021/01/12 03:41:22;;;;;;;9.53;6.07;;;;;;;0.77;82.00;98062.38;5114461;28;20301;-66
2021/01/12 03:43:48;;;;;;;8.97;5.93;;;;;;;0.76;82.49;98065.88;5114109;28;20209;-67
2021/01/12 03:46:14;;;;;;;8.37;5.63;;;;;;;0.72;82.59;98059.94;5114298;28;20217;-67
2021/01/12 03:48:40;;;;;;;8.60;5.60;;;;;;;0.83;82.29;98052.66;5114161;28;20210;-67
2021/01/12 03:51:07;;;;;;;8.73;6.43;;;;;;;0.72;82.14;98046.06;5112705;28;20268;-66
2021/01/12 03:53:33;;;;;;;8.83;6.20;;;;;;;0.67;83.31;98051.41;5114041;28;20205;-65
2021/01/12 03:55:59;;;;;;;9.53;6.40;;;;;;;0.66;83.57;98041.91;5114033;28;20678;-65
2021/01/12 03:58:25;;;;;;;8.20;6.17;;;;;;;0.65;84.18;98026.38;5113764;28;20573;-66
2021/01/12 04:00:51;;;;;;;7.40;5.53;;;;;;;0.67;83.70;98025.41;5114124;28;20259;-66
2021/01/12 04:03:16;;;;;;;8.80;5.93;;;;;;;0.74;84.13;98021.72;5114062;28;20210;-66
2021/01/12 04:05:42;;;;;;;9.10;6.53;;;;;;;0.81;83.78;98019.78;5113685;28;20240;-65
2021/01/12 04:08:11;;;;;;;7.93;5.50;;;;;;;0.74;84.24;98013.91;5113838;28;20215;-65
2021/01/12 04:10:37;;;;;;;9.20;5.87;;;;;;;0.72;84.45;98013.13;5113731;28;20213;-66
2021/01/12 04:13:04;;;;;;;8.07;5.73;;;;;;;0.81;84.93;98012.81;5113589;28;20697;-66
2021/01/12 04:15:30;;;;;;;7.77;5.67;;;;;;;0.86;85.09;98003.09;5113649;28;20223;-66
2021/01/12 04:17:56;;;;;;;7.57;5.47;;;;;;;0.85;85.23;97998.81;5111991;28;20202;-66
2021/01/12 04:20:22;;;;;;;7.67;5.70;;;;;;;0.84;85.78;98002.31;5113668;28;20239;-66
2021/01/12 04:22:48;;;;;;;9.63;5.83;;;;;;;0.83;86.23;98003.22;5113487;28;20289;-66
2021/01/12 04:25:15;;;;;;;7.30;5.00;;;;;;;0.82;85.67;97991.13;5113678;28;20237;-65
2021/01/12 04:27:41;;;;;;;7.47;5.33;;;;;;;0.89;85.82;97997.81;5113686;28;20671;-65
2021/01/12 04:30:08;;;;;;;7.43;5.37;;;;;;;0.88;86.52;97993.53;5113681;28;20213;-65
2021/01/12 04:32:34;;;;;;;6.30;4.90;;;;;;;0.76;87.36;97991.31;5113663;28;20206;-65
2021/01/12 04:35:00;;;;;;;7.07;5.47;;;;;;;0.80;86.74;97974.69;5113336;28;20245;-65
2021/01/12 04:37:26;;;;;;;7.43;5.10;;;;;;;0.83;87.26;97985.00;5113691;28;20293;-66
2021/01/12 04:39:52;;;;;;;9.50;5.93;;;;;;;0.89;87.28;97979.59;5113515;28;20289;-65
2021/01/12 04:42:18;;;;;;;8.73;5.60;;;;;;;0.87;88.06;97973.59;5112937;28;20238;-65
2021/01/12 04:44:44;;;;;;;8.13;5.70;;;;;;;0.85;88.41;97983.19;5112339;28;20220;-65
2021/01/12 04:47:11;;;;;;;7.73;5.43;;;;;;;0.99;87.78;97978.38;5113616;28;20213;-66
2021/01/12 04:49:36;;;;;;;7.77;5.03;;;;;;;1.00;88.55;97971.44;5113138;28;20693;-65
2021/01/12 04:52:03;;;;;;;8.10;4.83;;;;;;;0.98;87.76;97968.88;5113316;28;21057;-65
2021/01/12 04:54:33;;;;;;;7.67;5.13;;;;;;;1.07;88.10;97963.38;5113082;28;20222;-65
2021/01/12 04:56:59;;;;;;;7.87;5.33;;;;;;;1.13;87.78;97963.16;5114793;28;20611;-65
2021/01/12 04:59:29;;;;;;;8.00;5.83;;;;;;;1.06;87.91;97961.66;5117217;28;20249;-65
2021/01/12 05:01:56;;;;;;;7.63;5.13;;;;;;;1.17;87.61;97959.53;5117389;28;20214;-64
2021/01/12 05:04:22;;;;;;;7.90;5.20;;;;;;;1.17;87.62;97969.09;5117310;28;20560;-65
2021/01/12 05:06:48;;;;;;;7.67;4.97;;;;;;;1.22;87.11;97959.41;5116986;28;20210;-65
2021/01/12 05:09:20;;;;;;;8.20;5.53;;;;;;;1.21;87.07;97966.34;5115579;28;20694;-68
2021/01/12 05:11:47;;;;;;;6.90;5.13;;;;;;;1.26;86.86;97954.00;5117148;28;20213;-70
2021/01/12 05:14:15;;;;;;;7.40;5.20;;;;;;;1.24;87.18;97953.19;5117221;28;20210;-70
2021/01/12 05:16:49;;;;;;;7.53;5.37;;;;;;;1.25;87.58;97947.13;5117132;28;20209;-70
2021/01/12 05:19:20;;;;;;;7.00;4.97;;;;;;;1.29;86.90;97940.88;5116954;28;20252;-70
2021/01/12 05:21:47;;;;;;;6.70;4.90;;;;;;;1.27;87.13;97940.09;5116807;28;20205;-70
2021/01/12 05:24:17;;;;;;;7.80;5.37;;;;;;;1.31;87.11;97943.44;5116741;28;20570;-65
2021/01/12 05:26:43;;;;;;;6.63;4.93;;;;;;;1.31;87.10;97940.81;5116607;28;20206;-65
2021/01/12 05:29:09;;;;;;;7.47;5.00;;;;;;;1.33;86.60;97934.66;5116683;28;20728;-66
2021/01/12 05:31:36;;;;;;;7.23;5.43;;;;;;;1.31;87.75;97935.63;5116719;28;20202;-65
2021/01/12 05:34:05;;;;;;;7.13;4.77;;;;;;;1.34;87.69;97936.38;5116858;28;20211;-65
2021/01/12 05:36:32;;;;;;;7.17;5.07;;;;;;;1.37;87.78;97920.66;5114922;28;20205;-65
2021/01/12 05:39:00;;;;;;;7.43;4.77;;;;;;;1.40;87.99;97924.84;5116234;28;20234;-65
2021/01/12 05:41:26;;;;;;;6.60;4.67;;;;;;;1.36;88.69;97918.09;5116354;28;20551;-67
2021/01/12 05:43:53;;;;;;;8.23;5.50;;;;;;;1.40;88.80;97924.84;5116473;28;20212;-65
2021/01/12 05:46:19;;;;;;;6.13;4.70;;;;;;;1.48;88.31;97913.25;5116453;28;20214;-66
2021/01/12 05:48:46;;;;;;;8.50;5.40;;;;;;;1.52;88.80;97909.66;5117056;28;20214;-66
2021/01/12 05:51:14;;;;;;;8.30;5.50;;;;;;;1.47;88.61;97906.38;5117171;28;20704;-65
2021/01/12 05:54:03;;;;;;;7.30;5.00;;;;;;;1.50;89.21;97889.78;5116513;28;20218;-65
2021/01/12 05:56:30;;;;;;;6.07;4.23;;;;;;;1.53;89.39;97884.47;5085643;28;20691;-65
2021/01/12 05:58:57;;;;;;;7.50;4.80;;;;;;;1.55;89.22;97880.91;5116368;28;20264;-65
2021/01/12 06:01:35;;;;;;;5.47;4.17;;;;;;;1.37;91.56;97878.13;5114389;28;20669;-65
2021/01/12 06:04:07;;;;;;;5.80;4.40;;;;;;;1.39;92.08;97871.97;5116019;28;20671;-66
2021/01/12 06:06:35;;;;;;;6.43;4.57;;;;;;;1.51;91.70;97871.50;5116016;28;20213;-66
2021/01/12 06:09:01;;;;;;;7.20;4.50;;;;;;;1.67;91.04;97872.59;5115165;28;20575;-66
2021/01/12 06:11:27;;;;;;;6.50;4.70;;;;;;;1.68;91.07;97873.47;5116337;28;20210;-66
2021/01/12 06:13:54;;;;;;;6.53;4.70;;;;;;;1.71;91.17;97868.16;5116089;28;20210;-66
2021/01/12 06:16:23;;;;;;;5.83;4.40;;;;;;;1.72;91.55;97875.88;5116098;28;20255;-66
2021/01/12 06:19:05;;;;;;;5.57;4.23;;;;;;;1.66;92.12;97870.06;5115907;28;20599;-66
2021/01/12 06:21:35;;;;;;;7.53;4.83;;;;;;;1.67;92.21;97872.59;5115813;28;20213;-67
2021/01/12 06:24:09;;;;;;;6.67;4.83;;;;;;;1.58;92.69;97869.50;5115783;28;20202;-64
2021/01/12 06:26:36;;;;;;;7.10;4.80;;;;;;;1.57;92.47;97867.81;5113943;28;20202;-64
2021/01/12 06:29:03;;;;;;;7.13;4.97;;;;;;;1.52;93.39;97870.59;5115568;28;20691;-64
2021/01/12 06:31:29;;;;;;;6.77;4.57;;;;;;;1.48;93.59;97855.97;5115648;28;20203;-64
2021/01/12 06:33:56;;;;;;;8.60;5.33;;;;;;;1.54;94.36;97850.53;5115614;28;20214;-65
2021/01/12 06:36:25;;;;;;;7.20;5.47;;;;;;;1.42;95.16;97851.00;5115666;28;20587;-65
2021/01/12 06:38:53;;;;;;;6.13;4.50;;;;;;;1.45;95.72;97845.69;5115390;28;20235;-65
2021/01/12 06:41:21;;;;;;;8.07;4.90;;;;;;;1.40;95.97;97842.41;5115314;28;20218;-64
2021/01/12 06:43:49;;;;;;;6.33;4.90;;;;;;;1.50;95.33;97835.97;5115303;28;20214;-65
2021/01/12 06:46:16;;;;;;;8.07;4.70;;;;;;;1.41;96.78;97833.69;5115453;28;20259;-67
2021/01/12 06:48:43;;;;;;;8.90;4.97;;;;;;;1.38;97.28;97827.75;5115422;28;20209;-64
2021/01/12 06:51:09;;;;;;;7.63;5.67;;;;;;;1.35;97.58;97820.91;5115373;28;20210;-64
2021/01/12 06:53:35;;;;;;;6.23;4.93;;;;;;;1.40;97.71;97821.59;5113766;28;20217;-64
2021/01/12 06:56:06;;;;;;;6.13;4.73;;;;;;;1.39;97.30;97806.88;5115134;28;20254;-64
2021/01/12 06:58:32;;;;;;;5.73;4.27;;;;;;;1.38;97.01;97807.78;5114948;28;20238;-66
2021/01/12 07:01:00;;;;;;;6.30;4.50;;;;;;;1.44;97.16;97812.75;5115212;28;20319;-70
2021/01/12 07:03:29;;;;;;;6.43;4.53;;;;;;;1.48;96.20;97813.47;5114998;28;20213;-68
2021/01/12 07:05:59;;;;;;;8.53;4.77;;;;;;;1.46;96.21;97805.72;5114679;28;20667;-68
2021/01/12 07:08:27;;;;;;;6.90;4.63;;;;;;;1.54;95.88;97798.47;5114572;28;20270;-68
2021/01/12 07:10:53;;;;;;;6.60;4.40;;;;;;;1.45;96.14;97804.03;5114857;28;20616;-68
2021/01/12 07:13:20;;;;;;;5.80;4.27;;;;;;;1.51;96.17;97808.16;5114811;28;20232;-68
2021/01/12 07:15:47;;;;;;;6.30;4.93;;;;;;;1.56;95.34;97794.06;5114957;28;20232;-67
2021/01/12 07:18:13;;;;;;;6.37;4.73;;;;;;;1.68;95.48;97790.09;5114350;28;20214;-67
2021/01/12 07:20:40;;;;;;;6.10;4.90;;;;;;;1.57;95.62;97782.72;5113471;28;20230;-67
2021/01/12 07:23:08;;;;;;;7.23;4.60;;;;;;;1.63;95.22;97782.50;5114346;28;20210;-67
2021/01/12 07:25:36;;;;;;;7.60;4.67;;;;;;;1.63;95.48;97794.66;5114577;28;20254;-67
2021/01/12 07:28:06;;;;;;;7.30;5.20;;;;;;;1.63;96.00;97777.28;5114667;28;20297;-67
2021/01/12 07:30:34;;;;;;;7.77;4.73;;;;;;;1.61;96.37;97773.88;5114488;28;20206;-67
2021/01/12 07:33:02;;;;;;;6.90;4.50;;;;;;;1.62;96.74;97761.69;5114207;28;20243;-67
2021/01/12 07:35:29;;;;;;;6.30;4.73;;;;;;;1.64;96.98;97765.94;5114327;28;20586;-67
2021/01/12 07:37:55;;;;;;;7.23;4.73;;;;;;;1.71;96.82;97763.97;5114070;28;20690;-67
2021/01/12 07:40:22;;;;;;;6.80;4.73;;;;;;;1.63;97.42;97752.97;5113972;28;20687;-67
2021/01/12 07:42:49;;;;;;;5.73;4.03;;;;;;;1.67;98.03;97767.59;5114342;28;20216;-66
2021/01/12 07:45:16;;;;;;;6.27;4.53;;;;;;;1.63;97.74;97759.03;5112527;28;20217;-66
2021/01/12 07:47:44;;;;;;;6.97;4.30;;;;;;;1.77;97.35;97763.72;5114138;28;20574;-67
2021/01/12 07:50:12;;;;;;;5.90;3.93;;;;;;;1.77;97.84;97767.16;5113763;28;20757;-67
2021/01/12 07:52:38;;;;;;;5.83;4.77;;;;;;;1.77;97.99;97767.16;5114106;28;20210;-67
2021/01/12 07:55:05;;;;;;;5.67;4.40;;;;;;;1.71;98.33;97769.16;5114201;28;20210;-67
2021/01/12 07:57:31;;;;;;;7.70;4.23;;;;;;;1.72;98.61;97768.25;5113938;28;20209;-67
2021/01/12 07:59:57;;;;;;;5.50;4.20;;;;;;;1.70;98.82;97752.69;5113868;28;20249;-67
2021/01/12 08:02:26;;;;;;;7.23;4.83;;;;;;;1.72;99.32;97753.44;5114058;27;20210;-67
2021/01/12 08:04:53;;;;;;;6.50;4.67;;;;;;;1.71;99.57;97743.94;5113621;28;20215;-67
2021/01/12 08:07:23;;;;;;;6.20;4.40;;;;;;;1.72;99.95;97756.06;5114184;28;20210;-67
2021/01/12 08:09:56;;;;;;;5.07;4.20;;;;;;;1.72;100.00;97750.84;5113829;28;20213;-67
2021/01/12 08:12:23;;;;;;;5.97;4.07;;;;;;;1.75;100.00;97744.66;5112312;28;20620;-67
2021/01/12 08:14:50;;;;;;;7.13;4.77;;;;;;;1.74;100.00;97749.06;5114025;28;20225;-67
2021/01/12 08:17:25;;;;;;;6.63;4.60;;;;;;;1.67;100.00;97742.38;5113552;28;20706;-67
2021/01/12 08:19:53;;;;;;;6.77;4.23;;;;;;;1.75;100.00;97742.06;5113602;28;20257;-67
2021/01/12 08:22:19;;;;;;;6.83;4.50;;;;;;;1.82;100.00;97730.47;5113877;28;20214;-67
2021/01/12 08:24:46;;;;;;;5.07;3.70;;;;;;;1.86;100.00;97732.91;5113501;28;20213;-67
2021/01/12 08:27:13;;;;;;;5.30;3.73;;;;;;;1.90;100.00;97742.28;5113720;28;20265;-67
2021/01/12 08:29:39;;;;;;;6.37;4.07;;;;;;;2.00;99.68;97737.53;5113640;28;20317;-67
2021/01/12 08:32:07;;;;;;;4.73;3.67;;;;;;;2.07;99.81;97732.00;5112789;28;20206;-67
2021/01/12 08:34:44;;;;;;;4.80;3.43;;;;;;;2.11;98.70;97730.97;5113691;28;20213;-67
2021/01/12 08:37:13;;;;;;;4.90;3.30;;;;;;;2.21;98.28;97732.25;5111622;28;20205;-67
2021/01/12 08:39:40;;;;;;;3.97;3.03;;;;;;;2.28;98.05;97725.88;5113500;28;20258;-66
2021/01/12 08:42:07;;;;;;;5.70;3.33;;;;;;;2.31;98.28;97730.97;5113564;28;20263;-67
2021/01/12 08:44:35;;;;;;;3.97;2.97;;;;;;;2.31;97.97;97725.75;5113140;28;20681;-67
2021/01/12 08:47:04;;;;;;;3.77;3.13;;;;;;;2.27;98.26;97724.19;5113446;28;20213;-67
2021/01/12 08:49:31;;;;;;;3.17;2.57;;;;;;;2.33;98.63;97718.72;5113462;28;20210;-67
2021/01/12 08:51:58;;;;;;;4.00;2.60;;;;;;;2.36;97.71;97718.59;5113163;28;20571;-67
2021/01/12 08:54:25;;;;;;;2.93;2.50;;;;;;;2.38;97.81;97715.94;5113393;28;20293;-67
2021/01/12 08:56:56;;;;;;;3.87;2.83;;;;;;;2.33;98.65;97717.88;5113284;28;20556;-67
2021/01/12 08:59:30;;;;;;;2.77;2.47;;;;;;;2.37;98.35;97712.44;5113317;28;20703;-67
2021/01/12 09:01:57;;;;;;;3.33;2.10;;;;;;;2.45;98.15;97717.34;5113419;28;20201;-67
2021/01/12 09:04:23;;;;;;;3.63;2.67;;;;;;;2.44;98.94;97708.66;5111688;28;20245;-66
2021/01/12 09:07:00;;;;;;;2.40;2.17;;;;;;;2.42;99.70;97723.53;5113305;28;20618;-66
2021/01/12 09:09:27;;;;;;;3.27;2.60;;;;;;;2.46;99.97;97704.22;5113382;28;20217;-66
2021/01/12 09:11:58;;;;;;;2.87;2.27;;;;;;;2.50;99.52;97708.38;5109429;28;20214;-66
2021/01/12 09:14:25;;;;;;;3.33;2.80;;;;;;;2.47;100.00;97705.06;5112129;28;20210;-66
2021/01/12 09:16:55;;;;;;;2.33;2.13;;;;;;;2.50;100.00;97699.75;5112099;28;20248;-66
2021/01/12 09:19:21;;;;;;;2.77;2.13;;;;;;;2.46;100.00;97696.38;5111381;28;20263;-65
2021/01/12 09:21:47;;;;;;;2.83;1.90;;;;;;;2.40;100.00;97693.22;5110427;28;20198;-66
2021/01/12 09:24:17;;;;;;;2.60;2.10;;;;;;;2.39;100.00;97694.97;5111482;28;20349;-67
2021/01/12 09:26:44;;;;;;;4.00;2.00;;;;;;;2.38;100.00;97690.69;5111135;28;20214;-67
2021/01/12 09:29:11;;;;;;;2.03;1.83;;;;;;;2.32;100.00;97690.94;5110550;28;20214;-67
2021/01/12 09:31:48;;;;;;;1.73;1.60;;;;;;;2.31;100.00;97678.81;5111870;28;20206;-67
2021/01/12 09:34:22;;;;;;;2.13;1.60;;;;;;;2.25;100.00;97688.66;5111438;28;20210;-67
2021/01/12 09:36:48;;;;;;;2.00;1.50;;;;;;;2.28;100.00;97681.56;5112131;28;20256;-65
2021/01/12 09:39:14;;;;;;;1.53;1.43;;;;;;;2.32;100.00;97670.09;5111856;28;20589;-65
2021/01/12 09:41:41;;;;;;;1.90;1.50;;;;;;;2.21;100.00;97677.53;5111145;28;20206;-67
2021/01/12 09:44:09;;;;;;;1.93;1.60;;;;;;;2.20;100.00;97681.06;5115083;28;20202;-66
2021/01/12 09:46:36;;;;;;;1.83;1.60;;;;;;;2.08;100.00;97686.78;5115928;28;20209;-65
2021/01/12 09:49:03;;;;;;;1.60;1.40;;;;;;;2.07;100.00;97677.28;5114543;28;20229;-66
2021/01/12 09:51:29;;;;;;;1.73;1.40;;;;;;;2.08;100.00;97675.53;5115449;28;20592;-64
2021/01/12 09:53:55;;;;;;;1.90;1.50;;;;;;;1.97;100.00;97683.78;5115635;28;20210;-63
2021/01/12 09:56:21;;;;;;;1.50;1.40;;;;;;;1.92;100.00;97671.88;5113172;28;20310;-64
2021/01/12 09:58:50;;;;;;;2.30;1.67;;;;;;;1.90;100.00;97677.16;5115263;28;20238;-63
2021/01/12 10:01:18;;;;;;;1.93;1.60;;;;;;;1.88;100.00;97671.16;5115169;28;20213;-64
2021/01/12 10:03:44;;;;;;;2.40;1.80;;;;;;;1.89;100.00;97659.81;5114655;28;20210;-64
2021/01/12 10:06:18;;;;;;;1.40;1.30;;;;;;;1.86;100.00;97673.00;5115178;28;20213;-64
2021/01/12 10:08:46;;;;;;;1.70;1.50;;;;;;;1.88;100.00;97667.69;5115485;27;20258;-64
2021/01/12 10:11:12;;;;;;;1.40;1.30;;;;;;;1.80;100.00;97659.38;5114023;28;20206;-64
2021/01/12 10:13:38;;;;;;;1.30;1.20;;;;;;;1.80;100.00;97654.16;5115470;28;20206;-64
2021/01/12 10:16:05;;;;;;;2.00;1.40;;;;;;;1.75;100.00;97662.16;5114798;28;20748;-64
2021/01/12 10:18:31;;;;;;;1.43;1.33;;;;;;;1.77;100.00;97651.69;5114448;28;20217;-64
2021/01/12 10:20:58;;;;;;;1.30;1.20;;;;;;;1.78;100.00;97648.19;5114032;28;20687;-63
2021/01/12 10:23:24;;;;;;;1.23;1.10;;;;;;;1.88;100.00;97641.63;5112397;28;20214;-64
2021/01/12 10:25:51;;;;;;;1.30;1.20;;;;;;;1.84;100.00;97635.72;5114503;28;20206;-64
2021/01/12 10:28:17;;;;;;;1.50;1.40;;;;;;;1.83;100.00;97631.44;5114556;28;20210;-64
2021/01/12 10:30:43;;;;;;;1.70;1.00;;;;;;;1.82;100.00;97629.72;5114675;28;20328;-64
2021/01/12 10:33:08;;;;;;;1.20;1.10;;;;;;;1.88;100.00;97616.44;5113502;28;20667;-64
2021/01/12 10:35:35;;;;;;;1.87;1.10;;;;;;;1.91;100.00;97636.31;5114615;28;20213;-64
2021/01/12 10:38:01;;;;;;;1.20;1.07;;;;;;;1.94;100.00;97626.59;5114806;28;20206;-64
2021/01/12 10:40:27;;;;;;;1.60;1.10;;;;;;;1.92;100.00;97623.22;5113822;28;20324;-64
2021/01/12 10:42:53;;;;;;;1.13;1.03;;;;;;;1.92;100.00;97617.16;5114293;28;20671;-64
2021/01/12 10:45:19;;;;;;;2.13;1.20;;;;;;;1.95;100.00;97617.88;5114787;28;20297;-64
2021/01/12 10:47:45;;;;;;;1.67;1.00;;;;;;;1.97;100.00;97610.00;5112413;28;20206;-64
2021/01/12 10:50:14;;;;;;;1.00;0.90;;;;;;;2.05;100.00;97613.97;5114753;28;20667;-64
2021/01/12 10:52:41;;;;;;;1.83;0.80;;;;;;;2.09;100.00;97615.50;5113675;28;20220;-63
2021/01/12 10:55:08;;;;;;;0.83;0.83;;;;;;;2.17;100.00;97618.63;5113606;28;20206;-64
2021/01/12 10:57:34;;;;;;;1.17;1.07;;;;;;;2.16;100.00;97624.78;5114320;28;20259;-64
2021/01/12 11:00:01;;;;;;;0.70;0.70;;;;;;;2.16;100.00;97611.72;5113966;28;20242;-64
2021/01/12 11:02:31;;;;;;;0.87;0.87;;;;;;;2.12;100.00;97610.16;5113869;28;20249;-64
2021/01/12 11:04:57;;;;;;;1.03;0.93;;;;;;;2.12;100.00;97599.75;5114011;28;20206;-64
2021/01/12 11:07:23;;;;;;;1.13;0.80;;;;;;;2.10;100.00;97606.78;5114482;28;20241;-65
2021/01/12 11:09:51;;;;;;;0.97;0.97;;;;;;;2.09;100.00;97599.03;5114108;28;20293;-64
2021/01/12 11:12:18;;;;;;;0.90;0.90;;;;;;;2.08;100.00;97590.34;5112630;28;20213;-65
2021/01/12 11:14:45;;;;;;;0.70;0.70;;;;;;;2.08;100.00;97585.16;5112450;28;20201;-64
2021/01/12 11:17:13;;;;;;;0.80;0.80;;;;;;;2.10;100.00;97588.56;5114063;28;20582;-64
2021/01/12 11:19:39;;;;;;;0.73;0.73;;;;;;;2.13;100.00;97583.19;5112865;28;20229;-64
2021/01/12 11:22:05;;;;;;;0.87;0.80;;;;;;;2.15;100.00;97565.69;5113555;28;20257;-63
2021/01/12 11:24:31;;;;;;;0.93;0.90;;;;;;;2.27;100.00;97570.38;5112085;28;20210;-64
2021/01/12 11:26:58;;;;;;;0.73;0.73;;;;;;;2.31;100.00;97569.31;5112802;28;20241;-64
2021/01/12 11:29:25;;;;;;;1.50;0.90;;;;;;;2.27;100.00;97561.72;5113905;28;20221;-64
2021/01/12 11:31:58;;;;;;;1.13;0.80;;;;;;;2.21;100.00;97559.38;5112712;28;20229;-65
2021/01/12 11:34:26;;;;;;;0.80;0.80;;;;;;;2.21;100.00;97547.19;5112748;28;20209;-64